Wingham, Canada
Current Conditions -  °F | °C
As of 5:00 AM on Saturday 25 Oct 2014 (Local Time) from CYKF Reporting Station
Haze Haze  
Wind Chill: 44°   Ceiling: 3600
Heat Index: 46°   Visibility: 4mi
Dew Point: 43°   Wind: 5mph
Humidity: 87%   Direction: 250°WSW
Pressure: 29.85"   Gusts: NA
Location:  43.88°N, 81.3°W
Report Text: CYKF 250900Z AUTO 25004KT 4SM BR OVC036 08/06 A2985 RMK SLP110
Loading
Personal Weather Stations






























Interactive Weather Map
Tropical Storm Tracking
New forecast layout! Learn more

10-Day Weather Forecast

Advertisements
Track Severe Weather on mobile